createdAt,value
2019-03-28T00:00:54.890Z,101944.91
2019-03-28T00:03:25.936Z,101937.88
2019-03-28T00:05:56.988Z,101935.45
2019-03-28T00:08:28.434Z,101926.36
2019-03-28T00:11:00.248Z,101926.93
2019-03-28T00:13:31.986Z,101923.32
2019-03-28T00:16:02.664Z,101931.28
2019-03-28T00:18:33.683Z,101925.67
2019-03-28T00:21:04.371Z,101920.84
2019-03-28T00:23:39.366Z,101926.25
2019-03-28T00:26:10.445Z,101922.69
2019-03-28T00:28:41.592Z,101922.67
2019-03-28T00:31:14.560Z,101917.35
2019-03-28T00:33:45.317Z,101927.70
2019-03-28T00:36:15.994Z,101926.55
2019-03-28T00:38:46.691Z,101922.06
2019-03-28T00:41:17.359Z,101923.62
2019-03-28T00:43:49.145Z,101922.52
2019-03-28T00:46:21.139Z,101919.48
2019-03-28T00:48:53.167Z,101915.02
2019-03-28T00:51:25.107Z,101922.77
2019-03-28T00:53:56.809Z,101927.45
2019-03-28T00:56:28.530Z,101929.16
2019-03-28T00:58:59.186Z,101931.30
2019-03-28T01:01:29.916Z,101921.23
2019-03-28T01:04:00.586Z,101923.95
2019-03-28T01:06:32.212Z,101930.98
2019-03-28T01:09:04.274Z,101929.36
2019-03-28T01:11:36.056Z,101933.70
2019-03-28T01:14:07.077Z,101925.73
2019-03-28T01:16:39.469Z,101927.63
2019-03-28T01:19:10.398Z,101928.33
2019-03-28T01:21:41.261Z,101928.71
2019-03-28T01:24:12.161Z,101929.13
2019-03-28T01:26:56.236Z,101917.65
2019-03-28T01:29:16.110Z,101915.67
2019-03-28T01:31:47.140Z,101915.22
2019-03-28T01:34:17.854Z,101913.89
2019-03-28T01:36:48.786Z,101912.48
2019-03-28T01:39:19.742Z,101914.52
2019-03-28T01:41:50.581Z,101918.05
2019-03-28T01:44:21.400Z,101924.88
2019-03-28T01:46:53.096Z,101914.89
2019-03-28T01:49:24.366Z,101923.02
2019-03-28T01:51:56.253Z,101922.25
2019-03-28T01:54:27.505Z,101924.63
2019-03-28T01:57:10.291Z,101913.78
2019-03-28T01:59:32.161Z,101917.67
2019-03-28T02:02:03.300Z,101911.73
2019-03-28T02:04:34.001Z,101923.03
2019-03-28T02:07:05.084Z,101916.72
2019-03-28T02:09:36.251Z,101911.84
2019-03-28T02:12:11.225Z,101915.06
2019-03-28T02:14:42.204Z,101913.73
2019-03-28T02:17:12.891Z,101911.63
2019-03-28T02:19:45.197Z,101912.58
2019-03-28T02:22:16.550Z,101908.72
2019-03-28T02:24:47.761Z,101910.52
2019-03-28T02:27:23.886Z,101902.72
2019-03-28T02:29:50.837Z,101908.19
2019-03-28T02:32:23.680Z,101902.88
2019-03-28T02:34:54.364Z,101903.83
2019-03-28T02:37:25.358Z,101906.16
2019-03-28T02:39:56.392Z,101914.13
2019-03-28T02:42:27.782Z,101910.08
2019-03-28T02:44:59.298Z,101912.70
2019-03-28T02:47:30.244Z,101913.75
2019-03-28T02:50:01.059Z,101912.00
2019-03-28T02:52:32.069Z,101906.88
2019-03-28T02:55:02.838Z,101920.50
2019-03-28T02:57:41.058Z,101916.23
2019-03-28T03:00:08.509Z,101917.39
2019-03-28T03:02:39.334Z,101916.97
2019-03-28T03:05:10.775Z,101917.39
2019-03-28T03:07:41.891Z,101922.13
2019-03-28T03:10:13.304Z,101920.33
2019-03-28T03:12:43.981Z,101922.23
2019-03-28T03:15:15.516Z,101914.57
2019-03-28T03:17:46.180Z,101922.91
2019-03-28T03:20:17.541Z,101913.16
2019-03-28T03:22:48.441Z,101923.08
2019-03-28T03:25:19.156Z,101921.16
2019-03-28T03:27:57.500Z,101922.11
2019-03-28T03:30:22.250Z,101919.03
2019-03-28T03:32:52.916Z,101919.85
2019-03-28T03:35:24.782Z,101924.86
2019-03-28T03:37:56.201Z,101921.59
2019-03-28T03:40:27.882Z,101920.61
2019-03-28T03:42:58.500Z,101917.53
2019-03-28T03:45:29.933Z,101917.80
2019-03-28T03:48:01.399Z,101918.27
2019-03-28T03:50:32.547Z,101918.09
2019-03-28T03:53:03.213Z,101915.78
2019-03-28T03:55:34.023Z,101919.59
2019-03-28T03:58:15.483Z,101918.86
2019-03-28T04:00:38.730Z,101916.16
2019-03-28T04:03:09.639Z,101921.47
2019-03-28T04:05:40.365Z,101917.97
2019-03-28T04:08:11.462Z,101917.88
2019-03-28T04:10:42.450Z,101918.84
2019-03-28T04:13:14.192Z,101913.59
2019-03-28T04:15:44.957Z,101917.32
2019-03-28T04:18:16.157Z,101925.11
2019-03-28T04:20:47.150Z,101922.41
2019-03-28T04:23:17.826Z,101924.97
2019-03-28T04:25:48.756Z,101922.84
2019-03-28T04:28:31.696Z,101934.87
2019-03-28T04:30:53.084Z,101933.20
2019-03-28T04:33:24.847Z,101930.20
2019-03-28T04:35:56.200Z,101929.34
2019-03-28T04:38:27.321Z,101925.23
2019-03-28T04:40:58.251Z,101937.55
2019-03-28T04:43:29.962Z,101943.25
2019-03-28T04:46:01.084Z,101942.09
2019-03-28T04:48:31.839Z,101940.21
2019-03-28T04:51:03.147Z,101943.97
2019-03-28T04:53:34.587Z,101939.78
2019-03-28T04:56:05.798Z,101933.14
2019-03-28T04:58:44.241Z,101945.34
2019-03-28T05:01:09.283Z,101938.84
2019-03-28T05:03:43.594Z,101943.80
2019-03-28T05:06:14.593Z,101946.50
2019-03-28T05:08:45.675Z,101939.44
2019-03-28T05:11:17.692Z,101942.69
2019-03-28T05:13:48.546Z,101948.21
2019-03-28T05:16:20.039Z,101947.88
2019-03-28T05:18:50.748Z,101944.91
2019-03-28T05:21:21.778Z,101945.73
2019-03-28T05:23:55.623Z,101950.85
2019-03-28T05:26:32.180Z,101952.52
2019-03-28T05:29:04.837Z,101952.77
2019-03-28T05:31:35.910Z,101949.95
2019-03-28T05:34:07.124Z,101949.33
2019-03-28T05:36:37.981Z,101953.62
2019-03-28T05:39:09.202Z,101953.45
2019-03-28T05:41:39.901Z,101962.22
2019-03-28T05:44:12.134Z,101952.15
2019-03-28T05:46:42.808Z,101951.13
2019-03-28T05:49:13.626Z,101954.09
2019-03-28T05:51:46.985Z,101955.80
2019-03-28T05:54:18.171Z,101951.84
2019-03-28T05:56:49.033Z,101957.46
2019-03-28T05:59:19.688Z,101956.70
2019-03-28T06:01:51.076Z,101955.16
2019-03-28T06:04:21.847Z,101959.99
2019-03-28T06:06:53.802Z,101970.30
2019-03-28T06:09:24.627Z,101961.75
2019-03-28T06:12:00.327Z,101969.61
2019-03-28T06:14:39.739Z,101971.86
2019-03-28T06:17:10.638Z,101977.86
2019-03-28T06:19:41.316Z,101979.36
2019-03-28T06:22:12.007Z,101973.34
2019-03-28T06:24:43.725Z,101976.37
2019-03-28T06:27:14.454Z,101983.99
2019-03-28T06:29:45.497Z,101982.16
2019-03-28T06:32:16.151Z,101981.03
2019-03-28T06:34:47.143Z,101979.19
2019-03-28T06:37:18.098Z,101979.92
2019-03-28T06:39:48.807Z,101984.96
2019-03-28T06:42:19.911Z,101981.33
2019-03-28T06:44:50.571Z,101985.44
2019-03-28T06:47:22.632Z,101982.68
2019-03-28T06:49:55.764Z,101984.27
2019-03-28T06:52:26.425Z,101991.80
2019-03-28T06:54:57.545Z,101990.22
2019-03-28T06:57:28.732Z,101991.33
2019-03-28T06:59:59.549Z,101989.30
2019-03-28T07:02:30.661Z,101994.73
2019-03-28T07:05:01.526Z,101984.14
2019-03-28T07:07:34.191Z,101991.38
2019-03-28T07:10:10.703Z,101996.13
2019-03-28T07:12:41.647Z,101997.58
2019-03-28T07:15:12.772Z,101992.97
2019-03-28T07:17:43.774Z,101999.67
2019-03-28T07:20:14.776Z,101993.34
2019-03-28T07:22:46.058Z,101997.71
2019-03-28T07:25:16.943Z,102004.55
2019-03-28T07:27:48.015Z,101999.39
2019-03-28T07:30:19.660Z,102000.94
2019-03-28T07:32:50.392Z,102008.05
2019-03-28T07:35:21.343Z,102006.34
2019-03-28T07:37:52.483Z,102004.04
2019-03-28T07:40:23.582Z,102008.81
2019-03-28T07:42:54.260Z,102007.96
2019-03-28T07:45:24.945Z,102005.36
2019-03-28T07:47:55.960Z,102003.97
2019-03-28T07:50:26.988Z,102009.29
2019-03-28T07:52:58.022Z,101998.82
2019-03-28T07:55:28.734Z,102011.41
2019-03-28T07:57:59.689Z,102008.50
2019-03-28T08:00:31.371Z,102020.27
2019-03-28T08:03:02.132Z,102019.06
2019-03-28T08:05:33.120Z,102018.30
2019-03-28T08:08:03.872Z,102025.48
2019-03-28T08:10:35.116Z,102020.39
2019-03-28T08:13:05.820Z,102023.69
2019-03-28T08:15:36.491Z,102029.59
2019-03-28T08:18:07.174Z,102029.06
2019-03-28T08:20:37.844Z,102028.05
2019-03-28T08:23:08.564Z,102033.45
2019-03-28T08:25:39.249Z,102037.77
2019-03-28T08:28:09.903Z,102032.70
2019-03-28T08:30:41.436Z,102032.30
2019-03-28T08:33:12.097Z,102030.63
2019-03-28T08:35:42.833Z,102033.47
2019-03-28T08:38:14.740Z,102032.70
2019-03-28T08:40:45.977Z,102038.38
2019-03-28T08:43:17.006Z,102039.02
2019-03-28T08:45:47.671Z,102032.97
2019-03-28T08:48:19.708Z,102034.38
2019-03-28T08:50:50.376Z,102039.38
2019-03-28T08:53:21.392Z,102043.48
2019-03-28T08:55:52.044Z,102036.18
2019-03-28T08:58:23.053Z,102037.52
2019-03-28T09:00:53.705Z,102039.80
2019-03-28T09:03:24.716Z,102054.09
2019-03-28T09:05:55.678Z,102055.12
2019-03-28T09:08:26.338Z,102053.63
2019-03-28T09:10:57.025Z,102052.67
2019-03-28T09:13:27.679Z,102052.14
2019-03-28T09:15:58.470Z,102054.36
2019-03-28T09:18:29.327Z,102058.70
2019-03-28T09:21:00.588Z,102054.36
2019-03-28T09:23:31.342Z,102055.97
2019-03-28T09:26:04.386Z,102053.55
2019-03-28T09:28:34.554Z,102053.87
2019-03-28T09:31:18.909Z,102055.33
2019-03-28T09:33:40.718Z,102054.71
2019-03-28T09:36:11.738Z,102061.30
2019-03-28T09:38:42.429Z,102058.48
2019-03-28T09:41:13.520Z,102061.67
2019-03-28T09:43:54.677Z,102052.99
2019-03-28T09:46:16.919Z,102055.06
2019-03-28T09:48:47.604Z,102044.73
2019-03-28T09:51:18.598Z,102049.00
2019-03-28T09:53:49.425Z,102042.68
2019-03-28T09:56:20.465Z,102051.59
2019-03-28T09:58:51.722Z,102046.02
2019-03-28T10:01:22.666Z,102041.34
2019-03-28T10:03:53.628Z,102042.81
2019-03-28T10:06:26.005Z,102037.08
2019-03-28T10:08:56.951Z,102039.45
2019-03-28T10:11:27.656Z,102045.47
2019-03-28T10:13:58.678Z,102035.88
2019-03-28T10:16:29.376Z,102036.56
2019-03-28T10:19:03.493Z,102048.33
2019-03-28T10:21:40.928Z,102041.13
2019-03-28T10:24:18.584Z,102038.70
2019-03-28T10:26:53.060Z,102047.47
2019-03-28T10:29:23.758Z,102046.02
2019-03-28T10:31:54.484Z,102037.97
2019-03-28T10:34:27.142Z,102051.27
2019-03-28T10:36:58.126Z,102041.17
2019-03-28T10:39:29.162Z,102042.45
2019-03-28T10:41:59.861Z,102043.93
2019-03-28T10:44:30.508Z,102049.63
2019-03-28T10:47:04.904Z,102042.41
2019-03-28T10:49:34.581Z,102043.88
2019-03-28T10:52:05.273Z,102045.08
2019-03-28T10:54:36.999Z,102048.89
2019-03-28T10:57:13.458Z,102047.56
2019-03-28T10:59:40.375Z,102048.56
2019-03-28T11:02:12.572Z,102049.27
2019-03-28T11:04:44.735Z,102048.02
2019-03-28T11:07:15.766Z,102045.81
2019-03-28T11:09:46.837Z,102047.28
2019-03-28T11:12:17.815Z,102051.09
2019-03-28T11:14:48.976Z,102049.66
2019-03-28T11:17:20.003Z,102042.34
2019-03-28T11:19:50.941Z,102046.58
2019-03-28T11:22:21.874Z,102054.90
2019-03-28T11:24:52.917Z,102046.44
2019-03-28T11:27:23.861Z,102062.40
2019-03-28T11:29:54.801Z,102065.20
2019-03-28T11:32:25.740Z,102062.16
2019-03-28T11:34:56.416Z,102066.06
2019-03-28T11:37:28.242Z,102060.41
2019-03-28T11:40:02.150Z,102067.39
2019-03-28T11:42:34.351Z,102070.59
2019-03-28T11:45:10.025Z,102070.30
2019-03-28T11:47:40.746Z,102075.47
2019-03-28T11:50:16.831Z,102076.75
2019-03-28T11:52:46.858Z,102069.19
2019-03-28T11:55:17.817Z,102075.77
2019-03-28T11:57:48.488Z,102074.86
2019-03-28T12:00:19.645Z,102082.22
2019-03-28T12:02:50.328Z,102073.09
2019-03-28T12:05:21.251Z,102075.85
2019-03-28T12:07:51.950Z,102072.57
2019-03-28T12:10:22.683Z,102065.12
2019-03-28T12:12:53.355Z,102071.58
2019-03-28T12:15:24.123Z,102069.40
2019-03-28T12:17:54.871Z,102065.30
2019-03-28T12:20:25.826Z,102068.20
2019-03-28T12:22:56.936Z,102066.30
2019-03-28T12:25:27.616Z,102063.82
2019-03-28T12:28:00.375Z,102063.48
2019-03-28T12:30:30.954Z,102071.77
2019-03-28T12:33:01.689Z,102067.22
2019-03-28T12:35:32.747Z,102063.40
2019-03-28T12:38:03.800Z,102056.65
2019-03-28T12:40:34.980Z,102064.69
2019-03-28T12:43:05.667Z,102055.75
2019-03-28T12:45:36.325Z,102049.38
2019-03-28T12:48:07.157Z,102062.97
2019-03-28T12:50:37.825Z,102060.08
2019-03-28T12:53:08.521Z,102058.84
2019-03-28T12:55:39.533Z,102051.47
2019-03-28T12:58:10.559Z,102044.86
2019-03-28T13:00:41.234Z,102052.61
2019-03-28T13:03:12.331Z,102053.75
2019-03-28T13:05:43.003Z,102059.41
2019-03-28T13:08:13.927Z,102061.49
2019-03-28T13:10:45.582Z,102060.07
2019-03-28T13:13:16.617Z,102066.39
2019-03-28T13:15:47.389Z,102066.30
2019-03-28T13:18:18.060Z,102059.27
2019-03-28T13:20:48.757Z,102065.35
2019-03-28T13:23:19.424Z,102066.12
2019-03-28T13:25:50.489Z,102058.27
2019-03-28T13:28:21.445Z,102058.12
2019-03-28T13:30:52.527Z,102068.92
2019-03-28T13:33:23.250Z,102065.02
2019-03-28T13:35:54.695Z,102064.91
2019-03-28T13:38:25.922Z,102062.97
2019-03-28T13:40:56.695Z,102059.79
2019-03-28T13:43:28.019Z,102065.42
2019-03-28T13:45:59.047Z,102060.47
2019-03-28T13:48:30.103Z,102065.28
2019-03-28T13:51:00.772Z,102057.09
2019-03-28T13:53:39.382Z,102061.19
2019-03-28T13:56:03.867Z,102057.09
2019-03-28T13:58:34.585Z,102057.60
2019-03-28T14:01:05.281Z,102061.63
2019-03-28T14:03:36.331Z,102054.97
2019-03-28T14:06:07.005Z,102060.13
2019-03-28T14:08:37.708Z,102064.74
2019-03-28T14:11:08.757Z,102063.41
2019-03-28T14:13:39.778Z,102067.47
2019-03-28T14:16:10.838Z,102066.59
2019-03-28T14:18:41.502Z,102064.91
2019-03-28T14:21:12.463Z,102067.41
2019-03-28T14:23:44.581Z,102063.92
2019-03-28T14:26:15.305Z,102065.78
2019-03-28T14:28:46.343Z,102061.20
2019-03-28T14:31:17.390Z,102059.41
2019-03-28T14:33:48.065Z,102060.64
2019-03-28T14:36:18.749Z,102063.27
2019-03-28T14:38:50.052Z,102056.98
2019-03-28T14:41:21.119Z,102063.02
2019-03-28T14:43:51.846Z,102060.94
2019-03-28T14:46:22.527Z,102062.25
2019-03-28T14:48:53.629Z,102065.09
2019-03-28T14:51:24.996Z,102066.28
2019-03-28T14:53:56.073Z,102068.33
2019-03-28T14:56:28.085Z,102066.04
2019-03-28T14:59:00.024Z,102072.80
2019-03-28T15:01:31.517Z,102077.20
2019-03-28T15:04:02.656Z,102077.08
2019-03-28T15:06:33.959Z,102073.08
2019-03-28T15:09:09.760Z,102070.23
2019-03-28T15:11:40.791Z,102077.61
2019-03-28T15:14:11.818Z,102080.42
2019-03-28T15:16:43.206Z,102074.84
2019-03-28T15:19:13.852Z,102078.58
2019-03-28T15:21:44.842Z,102069.52
2019-03-28T15:24:15.883Z,102069.83
2019-03-28T15:26:46.989Z,102072.12
2019-03-28T15:29:19.226Z,102070.66
2019-03-28T15:31:50.443Z,102067.85
2019-03-28T15:34:21.138Z,102071.38
2019-03-28T15:36:51.941Z,102071.98
2019-03-28T15:39:22.759Z,102070.51
2019-03-28T15:41:54.025Z,102067.84
2019-03-28T15:44:27.697Z,102070.37
2019-03-28T15:46:58.949Z,102076.48
2019-03-28T15:49:30.045Z,102066.69
2019-03-28T15:52:03.254Z,102065.29
2019-03-28T15:54:33.463Z,102072.80
2019-03-28T15:57:04.334Z,102066.14
2019-03-28T15:59:35.997Z,102069.52
2019-03-28T16:02:08.055Z,102066.96
2019-03-28T16:04:39.164Z,102075.94
2019-03-28T16:07:10.265Z,102080.41
2019-03-28T16:09:41.471Z,102053.22
2019-03-28T16:12:12.134Z,102086.17
2019-03-28T16:14:43.503Z,102082.94
2019-03-28T16:17:14.174Z,102087.89
2019-03-28T16:19:45.203Z,102090.49
2019-03-28T16:22:16.406Z,102089.06
2019-03-28T16:24:47.501Z,102080.18
2019-03-28T16:27:18.979Z,102083.70
2019-03-28T16:29:54.337Z,102081.95
2019-03-28T16:32:24.846Z,102096.93
2019-03-28T16:34:56.101Z,102096.58
2019-03-28T16:37:27.774Z,102088.78
2019-03-28T16:39:59.274Z,102094.20
2019-03-28T16:42:30.359Z,102095.06
2019-03-28T16:45:02.027Z,102095.06
2019-03-28T16:47:33.066Z,102099.77
2019-03-28T16:50:05.683Z,102100.01
2019-03-28T16:52:37.286Z,102101.48
2019-03-28T16:55:08.748Z,102100.59
2019-03-28T16:57:39.895Z,102104.37
2019-03-28T17:00:14.324Z,102106.05
2019-03-28T17:02:45.547Z,102101.34
2019-03-28T17:05:16.227Z,102096.16
2019-03-28T17:07:47.843Z,102094.82
2019-03-28T17:10:44.418Z,102092.16
2019-03-28T17:13:16.835Z,102093.48
2019-03-28T17:15:48.706Z,102098.20
2019-03-28T17:18:20.699Z,102098.81
2019-03-28T17:20:51.451Z,102098.53
2019-03-28T17:23:22.440Z,102101.42
2019-03-28T17:25:53.506Z,102109.27
2019-03-28T17:28:24.176Z,102108.62
2019-03-28T17:30:55.279Z,102107.29
2019-03-28T17:33:25.967Z,102113.56
2019-03-28T17:36:10.559Z,102113.80
2019-03-28T17:38:44.357Z,102114.38
2019-03-28T17:41:15.092Z,102116.56
2019-03-28T17:43:48.585Z,102120.70
2019-03-28T17:46:19.248Z,102120.36
2019-03-28T17:48:50.267Z,102118.42
2019-03-28T17:51:21.228Z,102127.59
2019-03-28T17:53:51.960Z,102122.27
2019-03-28T17:56:22.931Z,102130.16
2019-03-28T17:58:53.870Z,102135.25
2019-03-28T18:01:26.089Z,102138.06
2019-03-28T18:03:57.411Z,102138.81
2019-03-28T18:06:28.370Z,102142.31
2019-03-28T18:08:59.919Z,102146.28
2019-03-28T18:11:30.963Z,102152.33
2019-03-28T18:14:01.922Z,102149.28
2019-03-28T18:16:34.110Z,102160.16
2019-03-28T18:19:05.308Z,102160.50
2019-03-28T18:21:36.358Z,102163.40
2019-03-28T18:24:07.045Z,102168.48
2019-03-28T18:26:45.119Z,102166.67
2019-03-28T18:29:19.008Z,102160.16
2019-03-28T18:31:50.751Z,102171.84
2019-03-28T18:34:21.193Z,102167.69
2019-03-28T18:36:52.931Z,102173.09
2019-03-28T18:39:23.879Z,102175.47
2019-03-28T18:41:56.584Z,102182.35
2019-03-28T18:44:27.191Z,102181.50
2019-03-28T18:46:58.283Z,102179.52
2019-03-28T18:49:31.252Z,102180.19
2019-03-28T18:52:02.268Z,102188.47
2019-03-28T18:54:32.950Z,102184.00
2019-03-28T18:57:03.705Z,102186.13
2019-03-28T18:59:34.797Z,102191.01
2019-03-28T19:02:05.484Z,102190.34
2019-03-28T19:04:36.235Z,102195.83
2019-03-28T19:07:07.066Z,102195.91
2019-03-28T19:09:37.754Z,102191.06
2019-03-28T19:12:08.823Z,102193.83
2019-03-28T19:14:39.527Z,102203.55
2019-03-28T19:17:10.196Z,102195.91
2019-03-28T19:19:41.873Z,102206.58
2019-03-28T19:22:12.554Z,102206.64
2019-03-28T19:24:43.369Z,102205.55
2019-03-28T19:27:14.032Z,102203.59
2019-03-28T19:29:45.017Z,102207.82
2019-03-28T19:32:18.228Z,102209.60
2019-03-28T19:34:49.231Z,102206.47
2019-03-28T19:37:24.626Z,102210.78
2019-03-28T19:39:56.871Z,102203.30
2019-03-28T19:42:27.897Z,102208.75
2019-03-28T19:44:58.694Z,102205.00
2019-03-28T19:47:29.699Z,102206.66
2019-03-28T19:50:00.387Z,102205.78
2019-03-28T19:52:31.035Z,102202.72
2019-03-28T19:55:02.695Z,102198.17
2019-03-28T19:57:33.728Z,102200.77
2019-03-28T20:00:08.909Z,102208.98
2019-03-28T20:02:39.907Z,102206.73
2019-03-28T20:05:11.297Z,102217.01
2019-03-28T20:07:45.592Z,102217.77
2019-03-28T20:10:16.700Z,102222.57
2019-03-28T20:12:47.645Z,102211.75
2019-03-28T20:15:18.399Z,102211.92
2019-03-28T20:17:49.460Z,102215.56
2019-03-28T20:20:21.438Z,102218.69
2019-03-28T20:22:52.463Z,102215.17
2019-03-28T20:25:23.478Z,102216.76
2019-03-28T20:27:54.156Z,102216.19
2019-03-28T20:30:25.256Z,102214.34
2019-03-28T20:32:56.200Z,102211.97
2019-03-28T20:35:26.915Z,102210.88
2019-03-28T20:37:57.603Z,102215.03
2019-03-28T20:40:28.596Z,102209.40
2019-03-28T20:42:59.345Z,102214.62
2019-03-28T20:45:30.018Z,102216.59
2019-03-28T20:48:02.600Z,102214.95
2019-03-28T20:50:33.330Z,102217.64
2019-03-28T20:53:04.355Z,102215.58
2019-03-28T20:55:35.099Z,102218.09
2019-03-28T20:58:05.914Z,102219.17
2019-03-28T21:00:43.956Z,102215.10
2019-03-28T21:03:15.546Z,102223.95
2019-03-28T21:05:46.561Z,102221.85
2019-03-28T21:08:17.311Z,102216.53
2019-03-28T21:10:47.978Z,102220.91
2019-03-28T21:13:18.672Z,102225.98
2019-03-28T21:15:49.340Z,102221.51
2019-03-28T21:18:20.367Z,102218.34
2019-03-28T21:20:52.362Z,102216.66
2019-03-28T21:23:23.303Z,102213.14
2019-03-28T21:25:54.052Z,102213.47
2019-03-28T21:28:25.373Z,102213.09
2019-03-28T21:30:59.119Z,102212.61
2019-03-28T21:33:29.208Z,102212.98
2019-03-28T21:36:01.502Z,102211.75
2019-03-28T21:38:32.677Z,102211.75
2019-03-28T21:41:03.585Z,102212.03
2019-03-28T21:43:34.258Z,102216.86
2019-03-28T21:46:05.087Z,102215.52
2019-03-28T21:48:35.784Z,102209.95
2019-03-28T21:51:07.609Z,102213.31
2019-03-28T21:53:38.736Z,102216.70
2019-03-28T21:56:09.655Z,102212.84
2019-03-28T21:58:40.279Z,102214.27
2019-03-28T22:01:12.087Z,102215.02
2019-03-28T22:03:43.214Z,102214.16
2019-03-28T22:06:14.991Z,102213.31
2019-03-28T22:08:45.638Z,102215.59
2019-03-28T22:11:16.377Z,102212.08
2019-03-28T22:13:47.740Z,102217.69
2019-03-28T22:16:18.679Z,102213.78
2019-03-28T22:18:49.632Z,102215.75
2019-03-28T22:21:20.599Z,102217.78
2019-03-28T22:23:51.859Z,102214.42
2019-03-28T22:26:22.866Z,102214.27
2019-03-28T22:28:53.695Z,102218.86
2019-03-28T22:31:24.360Z,102218.48
2019-03-28T22:33:55.528Z,102218.86
2019-03-28T22:36:26.525Z,102222.85
2019-03-28T22:38:57.308Z,102222.38
2019-03-28T22:41:28.494Z,102219.34
2019-03-28T22:43:59.561Z,102222.72
2019-03-28T22:46:30.544Z,102219.20
2019-03-28T22:49:01.797Z,102216.55
2019-03-28T22:51:32.577Z,102223.10
2019-03-28T22:54:04.841Z,102222.95
2019-03-28T22:56:35.828Z,102224.28
2019-03-28T22:59:06.495Z,102222.25
2019-03-28T23:01:37.857Z,102217.28
2019-03-28T23:04:08.810Z,102214.42
2019-03-28T23:06:39.842Z,102219.91
2019-03-28T23:09:10.986Z,102221.59
2019-03-28T23:11:42.526Z,102226.22
2019-03-28T23:14:13.488Z,102220.52
2019-03-28T23:16:44.413Z,102224.25
2019-03-28T23:19:15.100Z,102223.34
2019-03-28T23:21:45.745Z,102221.05
2019-03-28T23:24:17.182Z,102225.70
2019-03-28T23:26:49.125Z,102226.41
2019-03-28T23:29:19.876Z,102221.37
2019-03-28T23:31:52.200Z,102221.14
2019-03-28T23:34:23.150Z,102227.58
2019-03-28T23:36:54.179Z,102227.09
2019-03-28T23:39:25.203Z,102229.76
2019-03-28T23:41:56.139Z,102221.55
2019-03-28T23:44:27.209Z,102218.03
2019-03-28T23:46:59.284Z,102221.45
2019-03-28T23:49:30.303Z,102230.16
2019-03-28T23:52:01.854Z,102231.88
2019-03-28T23:54:32.777Z,102233.66
2019-03-28T23:57:03.735Z,102237.05
2019-03-28T23:59:34.720Z,102236.47
